sensor_id;sensor_type;location;lat;lon;timestamp;P1;durP1;ratioP1;P2;durP2;ratioP2
26474;SDS011;14161;52.270;10.334;2022-10-13T00:00:58;3.92;;;2.40;;
26474;SDS011;14161;52.270;10.334;2022-10-13T00:03:23;4.28;;;2.85;;
26474;SDS011;14161;52.270;10.334;2022-10-13T00:05:49;6.00;;;2.85;;
26474;SDS011;14161;52.270;10.334;2022-10-13T00:08:19;3.90;;;3.13;;
26474;SDS011;14161;52.270;10.334;2022-10-13T00:10:47;6.70;;;2.85;;
26474;SDS011;14161;52.270;10.334;2022-10-13T00:13:17;9.02;;;3.88;;
26474;SDS011;14161;52.270;10.334;2022-10-13T00:15:48;4.55;;;3.22;;
26474;SDS011;14161;52.270;10.334;2022-10-13T00:18:14;4.85;;;3.05;;
26474;SDS011;14161;52.270;10.334;2022-10-13T00:23:24;6.38;;;3.10;;
26474;SDS011;14161;52.270;10.334;2022-10-13T00:25:50;5.05;;;2.95;;
26474;SDS011;14161;52.270;10.334;2022-10-13T00:28:17;5.53;;;3.25;;
26474;SDS011;14161;52.270;10.334;2022-10-13T00:30:44;4.13;;;2.63;;
26474;SDS011;14161;52.270;10.334;2022-10-13T00:33:10;5.50;;;2.78;;
26474;SDS011;14161;52.270;10.334;2022-10-13T00:35:43;5.55;;;2.72;;
26474;SDS011;14161;52.270;10.334;2022-10-13T00:38:13;4.00;;;2.83;;
26474;SDS011;14161;52.270;10.334;2022-10-13T00:43:17;5.60;;;3.33;;
26474;SDS011;14161;52.270;10.334;2022-10-13T00:45:49;6.82;;;3.22;;
26474;SDS011;14161;52.270;10.334;2022-10-13T00:48:27;6.35;;;3.15;;
26474;SDS011;14161;52.270;10.334;2022-10-13T00:50:54;3.78;;;2.85;;
26474;SDS011;14161;52.270;10.334;2022-10-13T00:53:23;8.75;;;2.92;;
26474;SDS011;14161;52.270;10.334;2022-10-13T00:55:53;8.90;;;3.40;;
26474;SDS011;14161;52.270;10.334;2022-10-13T00:58:19;6.72;;;3.53;;
26474;SDS011;14161;52.270;10.334;2022-10-13T01:00:47;7.32;;;3.22;;
26474;SDS011;14161;52.270;10.334;2022-10-13T01:03:15;5.65;;;3.63;;
26474;SDS011;14161;52.270;10.334;2022-10-13T01:05:43;6.72;;;3.40;;
26474;SDS011;14161;52.270;10.334;2022-10-13T01:33:41;6.05;;;3.90;;
26474;SDS011;14161;52.270;10.334;2022-10-13T01:59:08;5.93;;;3.17;;
26474;SDS011;14161;52.270;10.334;2022-10-13T02:25:55;7.82;;;3.15;;
26474;SDS011;14161;52.270;10.334;2022-10-13T02:28:21;7.30;;;3.75;;
26474;SDS011;14161;52.270;10.334;2022-10-13T02:30:47;5.78;;;3.40;;
26474;SDS011;14161;52.270;10.334;2022-10-13T02:33:13;6.43;;;3.40;;
26474;SDS011;14161;52.270;10.334;2022-10-13T02:35:39;8.30;;;3.33;;
26474;SDS011;14161;52.270;10.334;2022-10-13T02:38:05;4.57;;;2.85;;
26474;SDS011;14161;52.270;10.334;2022-10-13T02:40:30;5.80;;;3.20;;
26474;SDS011;14161;52.270;10.334;2022-10-13T02:43:02;9.35;;;3.53;;
26474;SDS011;14161;52.270;10.334;2022-10-13T02:45:30;6.10;;;3.22;;
26474;SDS011;14161;52.270;10.334;2022-10-13T02:48:03;6.13;;;3.65;;
26474;SDS011;14161;52.270;10.334;2022-10-13T02:50:32;4.43;;;3.47;;
26474;SDS011;14161;52.270;10.334;2022-10-13T02:52:58;6.20;;;3.72;;
26474;SDS011;14161;52.270;10.334;2022-10-13T02:55:23;6.07;;;4.00;;
26474;SDS011;14161;52.270;10.334;2022-10-13T02:57:54;5.10;;;3.47;;
26474;SDS011;14161;52.270;10.334;2022-10-13T03:00:23;6.32;;;4.38;;
26474;SDS011;14161;52.270;10.334;2022-10-13T03:02:49;6.68;;;4.13;;
26474;SDS011;14161;52.270;10.334;2022-10-13T03:05:14;7.28;;;3.92;;
26474;SDS011;14161;52.270;10.334;2022-10-13T03:07:40;8.75;;;4.65;;
26474;SDS011;14161;52.270;10.334;2022-10-13T03:10:05;9.23;;;4.53;;
26474;SDS011;14161;52.270;10.334;2022-10-13T03:12:31;6.95;;;4.85;;
26474;SDS011;14161;52.270;10.334;2022-10-13T03:14:57;10.60;;;4.47;;
26474;SDS011;14161;52.270;10.334;2022-10-13T03:17:22;7.53;;;3.83;;
26474;SDS011;14161;52.270;10.334;2022-10-13T03:19:48;8.30;;;4.40;;
26474;SDS011;14161;52.270;10.334;2022-10-13T03:22:21;5.45;;;3.72;;
26474;SDS011;14161;52.270;10.334;2022-10-13T03:24:49;6.10;;;3.92;;
26474;SDS011;14161;52.270;10.334;2022-10-13T03:27:14;6.22;;;4.10;;
26474;SDS011;14161;52.270;10.334;2022-10-13T03:29:40;5.22;;;3.67;;
26474;SDS011;14161;52.270;10.334;2022-10-13T03:32:06;5.57;;;3.60;;
26474;SDS011;14161;52.270;10.334;2022-10-13T03:34:31;5.70;;;3.97;;
26474;SDS011;14161;52.270;10.334;2022-10-13T03:36:57;5.90;;;4.03;;
26474;SDS011;14161;52.270;10.334;2022-10-13T03:39:22;7.68;;;4.68;;
26474;SDS011;14161;52.270;10.334;2022-10-13T03:41:48;7.78;;;5.13;;
26474;SDS011;14161;52.270;10.334;2022-10-13T03:44:13;7.72;;;3.95;;
26474;SDS011;14161;52.270;10.334;2022-10-13T03:46:39;6.40;;;4.28;;
26474;SDS011;14161;52.270;10.334;2022-10-13T03:49:04;7.00;;;4.22;;
26474;SDS011;14161;52.270;10.334;2022-10-13T03:51:30;6.38;;;3.92;;
26474;SDS011;14161;52.270;10.334;2022-10-13T03:53:55;10.00;;;5.30;;
26474;SDS011;14161;52.270;10.334;2022-10-13T03:56:22;11.40;;;5.60;;
26474;SDS011;14161;52.270;10.334;2022-10-13T03:58:49;7.35;;;5.07;;
26474;SDS011;14161;52.270;10.334;2022-10-13T04:01:18;8.05;;;5.32;;
26474;SDS011;14161;52.270;10.334;2022-10-13T04:03:46;9.85;;;5.38;;
26474;SDS011;14161;52.270;10.334;2022-10-13T04:06:12;10.50;;;5.60;;
26474;SDS011;14161;52.270;10.334;2022-10-13T04:08:38;8.82;;;5.03;;
26474;SDS011;14161;52.270;10.334;2022-10-13T04:11:05;9.15;;;6.00;;
26474;SDS011;14161;52.270;10.334;2022-10-13T04:13:32;7.88;;;6.03;;
26474;SDS011;14161;52.270;10.334;2022-10-13T04:16:02;7.97;;;5.10;;
26474;SDS011;14161;52.270;10.334;2022-10-13T04:18:28;12.32;;;5.85;;
26474;SDS011;14161;52.270;10.334;2022-10-13T04:20:53;9.63;;;6.25;;
26474;SDS011;14161;52.270;10.334;2022-10-13T04:23:19;8.57;;;6.57;;
26474;SDS011;14161;52.270;10.334;2022-10-13T04:25:46;10.07;;;7.30;;
26474;SDS011;14161;52.270;10.334;2022-10-13T04:28:11;13.02;;;7.40;;
26474;SDS011;14161;52.270;10.334;2022-10-13T04:30:37;10.00;;;6.10;;
26474;SDS011;14161;52.270;10.334;2022-10-13T04:33:02;8.00;;;5.60;;
26474;SDS011;14161;52.270;10.334;2022-10-13T04:35:28;11.18;;;6.90;;
26474;SDS011;14161;52.270;10.334;2022-10-13T04:37:54;9.70;;;6.53;;
26474;SDS011;14161;52.270;10.334;2022-10-13T04:40:23;9.93;;;5.78;;
26474;SDS011;14161;52.270;10.334;2022-10-13T04:42:49;9.00;;;6.38;;
26474;SDS011;14161;52.270;10.334;2022-10-13T04:45:15;11.38;;;6.85;;
26474;SDS011;14161;52.270;10.334;2022-10-13T04:47:41;10.93;;;6.22;;
26474;SDS011;14161;52.270;10.334;2022-10-13T04:50:06;12.60;;;7.38;;
26474;SDS011;14161;52.270;10.334;2022-10-13T04:52:33;9.55;;;6.32;;
26474;SDS011;14161;52.270;10.334;2022-10-13T04:55:11;8.10;;;5.53;;
26474;SDS011;14161;52.270;10.334;2022-10-13T04:57:36;9.57;;;6.63;;
26474;SDS011;14161;52.270;10.334;2022-10-13T05:00:03;13.13;;;6.78;;
26474;SDS011;14161;52.270;10.334;2022-10-13T05:02:35;10.30;;;5.97;;
26474;SDS011;14161;52.270;10.334;2022-10-13T05:05:01;7.57;;;5.80;;
26474;SDS011;14161;52.270;10.334;2022-10-13T05:07:28;10.77;;;6.47;;
26474;SDS011;14161;52.270;10.334;2022-10-13T05:09:54;10.20;;;6.90;;
26474;SDS011;14161;52.270;10.334;2022-10-13T05:12:22;8.73;;;6.13;;
26474;SDS011;14161;52.270;10.334;2022-10-13T05:14:48;8.18;;;6.47;;
26474;SDS011;14161;52.270;10.334;2022-10-13T05:17:13;8.45;;;6.50;;
26474;SDS011;14161;52.270;10.334;2022-10-13T05:19:39;11.50;;;6.88;;
26474;SDS011;14161;52.270;10.334;2022-10-13T05:22:15;10.13;;;7.00;;
26474;SDS011;14161;52.270;10.334;2022-10-13T05:24:41;10.50;;;6.70;;
26474;SDS011;14161;52.270;10.334;2022-10-13T05:27:12;12.70;;;7.47;;
26474;SDS011;14161;52.270;10.334;2022-10-13T05:29:37;10.85;;;7.35;;
26474;SDS011;14161;52.270;10.334;2022-10-13T05:32:04;14.15;;;7.82;;
26474;SDS011;14161;52.270;10.334;2022-10-13T05:34:34;11.80;;;8.40;;
26474;SDS011;14161;52.270;10.334;2022-10-13T05:37:00;11.57;;;8.05;;
26474;SDS011;14161;52.270;10.334;2022-10-13T05:39:25;13.43;;;8.60;;
26474;SDS011;14161;52.270;10.334;2022-10-13T05:41:51;10.60;;;7.13;;
26474;SDS011;14161;52.270;10.334;2022-10-13T05:44:20;12.18;;;8.02;;
26474;SDS011;14161;52.270;10.334;2022-10-13T05:46:51;15.93;;;8.90;;
26474;SDS011;14161;52.270;10.334;2022-10-13T05:49:20;10.30;;;7.63;;
26474;SDS011;14161;52.270;10.334;2022-10-13T05:51:56;14.40;;;8.95;;
26474;SDS011;14161;52.270;10.334;2022-10-13T05:54:26;12.35;;;7.65;;
26474;SDS011;14161;52.270;10.334;2022-10-13T05:56:58;12.50;;;7.93;;
26474;SDS011;14161;52.270;10.334;2022-10-13T05:59:39;13.77;;;8.35;;
26474;SDS011;14161;52.270;10.334;2022-10-13T06:02:18;15.35;;;8.57;;
26474;SDS011;14161;52.270;10.334;2022-10-13T06:04:49;10.25;;;8.00;;
26474;SDS011;14161;52.270;10.334;2022-10-13T06:07:22;12.23;;;8.20;;
26474;SDS011;14161;52.270;10.334;2022-10-13T06:09:48;18.80;;;9.43;;
26474;SDS011;14161;52.270;10.334;2022-10-13T06:12:19;13.18;;;9.20;;
26474;SDS011;14161;52.270;10.334;2022-10-13T06:14:44;11.50;;;8.00;;
26474;SDS011;14161;52.270;10.334;2022-10-13T06:17:14;15.68;;;10.35;;
26474;SDS011;14161;52.270;10.334;2022-10-13T06:19:46;15.30;;;8.45;;
26474;SDS011;14161;52.270;10.334;2022-10-13T06:22:11;12.55;;;8.32;;
26474;SDS011;14161;52.270;10.334;2022-10-13T06:24:37;15.95;;;8.32;;
26474;SDS011;14161;52.270;10.334;2022-10-13T06:27:07;11.50;;;8.48;;
26474;SDS011;14161;52.270;10.334;2022-10-13T06:29:34;10.88;;;8.13;;
26474;SDS011;14161;52.270;10.334;2022-10-13T06:32:03;12.23;;;7.72;;
26474;SDS011;14161;52.270;10.334;2022-10-13T06:34:49;10.55;;;8.20;;
26474;SDS011;14161;52.270;10.334;2022-10-13T06:37:18;11.23;;;7.70;;
26474;SDS011;14161;52.270;10.334;2022-10-13T06:39:46;13.82;;;8.73;;
26474;SDS011;14161;52.270;10.334;2022-10-13T06:42:20;12.85;;;9.77;;
26474;SDS011;14161;52.270;10.334;2022-10-13T06:45:07;11.45;;;9.32;;
26474;SDS011;14161;52.270;10.334;2022-10-13T06:47:32;14.70;;;9.57;;
26474;SDS011;14161;52.270;10.334;2022-10-13T06:49:58;14.30;;;9.32;;
26474;SDS011;14161;52.270;10.334;2022-10-13T06:52:23;13.32;;;8.20;;
26474;SDS011;14161;52.270;10.334;2022-10-13T06:54:49;13.32;;;9.88;;
26474;SDS011;14161;52.270;10.334;2022-10-13T06:57:20;14.43;;;9.07;;
26474;SDS011;14161;52.270;10.334;2022-10-13T06:59:55;15.23;;;9.77;;
26474;SDS011;14161;52.270;10.334;2022-10-13T07:02:21;14.38;;;9.57;;
26474;SDS011;14161;52.270;10.334;2022-10-13T07:04:46;12.85;;;9.38;;
26474;SDS011;14161;52.270;10.334;2022-10-13T07:07:12;16.75;;;11.20;;
26474;SDS011;14161;52.270;10.334;2022-10-13T07:09:38;16.42;;;10.88;;
26474;SDS011;14161;52.270;10.334;2022-10-13T07:12:05;14.15;;;9.98;;
26474;SDS011;14161;52.270;10.334;2022-10-13T07:14:35;17.08;;;11.70;;
26474;SDS011;14161;52.270;10.334;2022-10-13T07:17:02;15.20;;;10.77;;
26474;SDS011;14161;52.270;10.334;2022-10-13T07:19:27;14.02;;;9.68;;
26474;SDS011;14161;52.270;10.334;2022-10-13T07:21:57;19.00;;;11.55;;
26474;SDS011;14161;52.270;10.334;2022-10-13T07:24:23;13.68;;;9.98;;
26474;SDS011;14161;52.270;10.334;2022-10-13T07:26:49;21.73;;;12.75;;
26474;SDS011;14161;52.270;10.334;2022-10-13T07:29:14;17.83;;;12.05;;
26474;SDS011;14161;52.270;10.334;2022-10-13T07:31:44;14.60;;;9.52;;
26474;SDS011;14161;52.270;10.334;2022-10-13T07:34:09;19.20;;;11.02;;
26474;SDS011;14161;52.270;10.334;2022-10-13T07:36:44;17.52;;;11.77;;
26474;SDS011;14161;52.270;10.334;2022-10-13T07:39:23;15.05;;;10.23;;
26474;SDS011;14161;52.270;10.334;2022-10-13T07:41:48;19.40;;;12.48;;
26474;SDS011;14161;52.270;10.334;2022-10-13T07:44:14;21.92;;;13.00;;
26474;SDS011;14161;52.270;10.334;2022-10-13T07:46:42;18.38;;;13.20;;
26474;SDS011;14161;52.270;10.334;2022-10-13T07:49:11;13.95;;;10.40;;
26474;SDS011;14161;52.270;10.334;2022-10-13T07:51:36;13.45;;;9.95;;
26474;SDS011;14161;52.270;10.334;2022-10-13T07:54:09;13.13;;;8.93;;
26474;SDS011;14161;52.270;10.334;2022-10-13T07:56:35;12.32;;;9.27;;
26474;SDS011;14161;52.270;10.334;2022-10-13T07:59:01;11.82;;;9.60;;
26474;SDS011;14161;52.270;10.334;2022-10-13T08:01:26;17.55;;;10.35;;
26474;SDS011;14161;52.270;10.334;2022-10-13T08:03:53;13.60;;;9.55;;
26474;SDS011;14161;52.270;10.334;2022-10-13T08:06:25;13.35;;;10.10;;
26474;SDS011;14161;52.270;10.334;2022-10-13T08:08:52;13.63;;;10.18;;
26474;SDS011;14161;52.270;10.334;2022-10-13T08:11:21;14.98;;;9.10;;
26474;SDS011;14161;52.270;10.334;2022-10-13T08:13:50;17.27;;;10.82;;
26474;SDS011;14161;52.270;10.334;2022-10-13T08:16:22;18.40;;;11.13;;
26474;SDS011;14161;52.270;10.334;2022-10-13T08:18:47;13.30;;;10.38;;
26474;SDS011;14161;52.270;10.334;2022-10-13T08:21:14;20.48;;;11.57;;
26474;SDS011;14161;52.270;10.334;2022-10-13T08:23:42;14.98;;;10.18;;
26474;SDS011;14161;52.270;10.334;2022-10-13T08:26:13;14.00;;;9.98;;
26474;SDS011;14161;52.270;10.334;2022-10-13T08:28:49;21.20;;;15.88;;
26474;SDS011;14161;52.270;10.334;2022-10-13T08:31:14;15.07;;;11.27;;
26474;SDS011;14161;52.270;10.334;2022-10-13T08:33:40;15.45;;;11.75;;
26474;SDS011;14161;52.270;10.334;2022-10-13T08:36:08;18.58;;;11.15;;
26474;SDS011;14161;52.270;10.334;2022-10-13T08:38:33;15.57;;;10.10;;
26474;SDS011;14161;52.270;10.334;2022-10-13T08:41:02;17.67;;;10.18;;
26474;SDS011;14161;52.270;10.334;2022-10-13T08:47:01;10.85;;;8.10;;
26474;SDS011;14161;52.270;10.334;2022-10-13T08:49:30;14.60;;;8.80;;
26474;SDS011;14161;52.270;10.334;2022-10-13T08:51:56;17.08;;;10.68;;
26474;SDS011;14161;52.270;10.334;2022-10-13T08:54:27;12.65;;;8.70;;
26474;SDS011;14161;52.270;10.334;2022-10-13T08:56:52;17.13;;;9.05;;
26474;SDS011;14161;52.270;10.334;2022-10-13T08:59:18;9.05;;;7.50;;
26474;SDS011;14161;52.270;10.334;2022-10-13T09:01:45;12.73;;;8.25;;
26474;SDS011;14161;52.270;10.334;2022-10-13T09:04:35;13.98;;;9.38;;
26474;SDS011;14161;52.270;10.334;2022-10-13T09:07:16;14.30;;;9.35;;
26474;SDS011;14161;52.270;10.334;2022-10-13T09:09:48;14.25;;;9.43;;
26474;SDS011;14161;52.270;10.334;2022-10-13T09:12:22;14.13;;;9.15;;
26474;SDS011;14161;52.270;10.334;2022-10-13T09:15:07;15.65;;;10.13;;
26474;SDS011;14161;52.270;10.334;2022-10-13T09:17:34;11.80;;;8.43;;
26474;SDS011;14161;52.270;10.334;2022-10-13T09:22:40;15.13;;;9.75;;
26474;SDS011;14161;52.270;10.334;2022-10-13T09:33:16;13.82;;;7.90;;
26474;SDS011;14161;52.270;10.334;2022-10-13T09:38:29;14.38;;;7.63;;
26474;SDS011;14161;52.270;10.334;2022-10-13T09:41:05;11.90;;;7.07;;
26474;SDS011;14161;52.270;10.334;2022-10-13T09:48:51;12.68;;;7.70;;
26474;SDS011;14161;52.270;10.334;2022-10-13T09:54:35;13.80;;;8.15;;
26474;SDS011;14161;52.270;10.334;2022-10-13T09:57:13;12.25;;;7.43;;
26474;SDS011;14161;52.270;10.334;2022-10-13T10:02:50;11.40;;;6.90;;
26474;SDS011;14161;52.270;10.334;2022-10-13T10:08:48;12.43;;;6.18;;
26474;SDS011;14161;52.270;10.334;2022-10-13T10:11:26;9.20;;;6.50;;
26474;SDS011;14161;52.270;10.334;2022-10-13T10:14:04;8.32;;;5.82;;
26474;SDS011;14161;52.270;10.334;2022-10-13T10:16:45;12.50;;;7.00;;
26474;SDS011;14161;52.270;10.334;2022-10-13T10:19:20;8.25;;;6.28;;
26474;SDS011;14161;52.270;10.334;2022-10-13T10:22:00;10.23;;;5.78;;
26474;SDS011;14161;52.270;10.334;2022-10-13T10:24:51;7.38;;;5.32;;
26474;SDS011;14161;52.270;10.334;2022-10-13T10:27:37;9.52;;;5.82;;
26474;SDS011;14161;52.270;10.334;2022-10-13T10:30:07;9.32;;;5.90;;
26474;SDS011;14161;52.270;10.334;2022-10-13T10:44:31;7.30;;;4.40;;
26474;SDS011;14161;52.270;10.334;2022-10-13T10:47:04;11.38;;;5.53;;
26474;SDS011;14161;52.270;10.334;2022-10-13T10:49:40;10.75;;;4.97;;
26474;SDS011;14161;52.270;10.334;2022-10-13T10:52:10;10.35;;;5.35;;
26474;SDS011;14161;52.270;10.334;2022-10-13T10:54:58;9.07;;;5.40;;
26474;SDS011;14161;52.270;10.334;2022-10-13T10:58:23;7.15;;;4.40;;
26474;SDS011;14161;52.270;10.334;2022-10-13T11:03:22;10.70;;;5.30;;
26474;SDS011;14161;52.270;10.334;2022-10-13T11:08:40;12.57;;;4.85;;
26474;SDS011;14161;52.270;10.334;2022-10-13T11:19:11;6.95;;;3.97;;
26474;SDS011;14161;52.270;10.334;2022-10-13T11:34:58;7.60;;;4.10;;
26474;SDS011;14161;52.270;10.334;2022-10-13T11:40:14;6.30;;;3.97;;
26474;SDS011;14161;52.270;10.334;2022-10-13T11:46:30;4.40;;;3.30;;
26474;SDS011;14161;52.270;10.334;2022-10-13T11:58:19;7.03;;;3.47;;
26474;SDS011;14161;52.270;10.334;2022-10-13T12:00:53;5.20;;;3.33;;
26474;SDS011;14161;52.270;10.334;2022-10-13T12:05:55;10.23;;;4.57;;
26474;SDS011;14161;52.270;10.334;2022-10-13T12:08:23;5.82;;;3.63;;
26474;SDS011;14161;52.270;10.334;2022-10-13T12:10:50;6.75;;;3.88;;
26474;SDS011;14161;52.270;10.334;2022-10-13T12:13:23;6.70;;;3.53;;
26474;SDS011;14161;52.270;10.334;2022-10-13T12:18:28;7.13;;;4.00;;
26474;SDS011;14161;52.270;10.334;2022-10-13T12:20:58;5.07;;;3.10;;
26474;SDS011;14161;52.270;10.334;2022-10-13T12:23:26;5.78;;;4.00;;
26474;SDS011;14161;52.270;10.334;2022-10-13T12:25:55;5.00;;;3.20;;
26474;SDS011;14161;52.270;10.334;2022-10-13T12:28:22;9.35;;;3.72;;
26474;SDS011;14161;52.270;10.334;2022-10-13T12:30:55;5.25;;;3.78;;
26474;SDS011;14161;52.270;10.334;2022-10-13T12:33:27;4.60;;;3.25;;
26474;SDS011;14161;52.270;10.334;2022-10-13T12:39:04;5.75;;;3.22;;
26474;SDS011;14161;52.270;10.334;2022-10-13T12:41:35;8.00;;;4.47;;
26474;SDS011;14161;52.270;10.334;2022-10-13T12:44:16;8.32;;;4.30;;
26474;SDS011;14161;52.270;10.334;2022-10-13T12:46:45;7.03;;;3.95;;
26474;SDS011;14161;52.270;10.334;2022-10-13T13:16:24;9.52;;;5.05;;
26474;SDS011;14161;52.270;10.334;2022-10-13T16:34:28;3.92;;;2.65;;
26474;SDS011;14161;52.270;10.334;2022-10-13T16:36:53;5.35;;;2.92;;
26474;SDS011;14161;52.270;10.334;2022-10-13T16:39:19;5.53;;;2.72;;
26474;SDS011;14161;52.270;10.334;2022-10-13T16:41:56;4.90;;;3.17;;
26474;SDS011;14161;52.270;10.334;2022-10-13T16:55:40;5.25;;;2.72;;
26474;SDS011;14161;52.270;10.334;2022-10-13T16:58:26;6.68;;;2.85;;
26474;SDS011;14161;52.270;10.334;2022-10-13T17:01:05;4.78;;;2.85;;
26474;SDS011;14161;52.270;10.334;2022-10-13T17:03:44;4.95;;;3.03;;
26474;SDS011;14161;52.270;10.334;2022-10-13T17:06:13;4.72;;;3.33;;
26474;SDS011;14161;52.270;10.334;2022-10-13T17:15:47;7.65;;;3.55;;
26474;SDS011;14161;52.270;10.334;2022-10-13T17:18:27;7.97;;;3.75;;
26474;SDS011;14161;52.270;10.334;2022-10-13T17:21:04;4.30;;;3.45;;
26474;SDS011;14161;52.270;10.334;2022-10-13T17:23:49;5.32;;;3.42;;
26474;SDS011;14161;52.270;10.334;2022-10-13T17:26:36;5.13;;;3.13;;
26474;SDS011;14161;52.270;10.334;2022-10-13T17:29:05;4.22;;;3.13;;
26474;SDS011;14161;52.270;10.334;2022-10-13T17:31:42;6.05;;;3.45;;
26474;SDS011;14161;52.270;10.334;2022-10-13T17:34:26;6.63;;;3.17;;
26474;SDS011;14161;52.270;10.334;2022-10-13T17:37:00;6.72;;;3.33;;
26474;SDS011;14161;52.270;10.334;2022-10-13T17:51:34;6.72;;;4.43;;
26474;SDS011;14161;52.270;10.334;2022-10-13T17:54:11;6.78;;;3.88;;
26474;SDS011;14161;52.270;10.334;2022-10-13T17:56:40;4.65;;;3.70;;
26474;SDS011;14161;52.270;10.334;2022-10-13T18:09:18;4.53;;;3.27;;
26474;SDS011;14161;52.270;10.334;2022-10-13T19:26:44;6.57;;;4.82;;
26474;SDS011;14161;52.270;10.334;2022-10-13T19:30:05;9.25;;;5.13;;
26474;SDS011;14161;52.270;10.334;2022-10-13T19:36:29;8.77;;;6.70;;
26474;SDS011;14161;52.270;10.334;2022-10-13T19:43:16;8.48;;;6.70;;
26474;SDS011;14161;52.270;10.334;2022-10-13T19:45:43;12.55;;;7.15;;
26474;SDS011;14161;52.270;10.334;2022-10-13T19:48:27;13.32;;;7.97;;
26474;SDS011;14161;52.270;10.334;2022-10-13T19:56:04;10.65;;;7.07;;
26474;SDS011;14161;52.270;10.334;2022-10-13T21:34:54;6.88;;;4.63;;
26474;SDS011;14161;52.270;10.334;2022-10-13T21:37:20;9.98;;;6.22;;
26474;SDS011;14161;52.270;10.334;2022-10-13T21:39:46;8.70;;;6.28;;
26474;SDS011;14161;52.270;10.334;2022-10-13T21:42:20;8.00;;;5.93;;
26474;SDS011;14161;52.270;10.334;2022-10-13T21:44:45;9.00;;;6.30;;
26474;SDS011;14161;52.270;10.334;2022-10-13T21:47:11;10.75;;;6.60;;
26474;SDS011;14161;52.270;10.334;2022-10-13T21:49:42;8.95;;;5.63;;
26474;SDS011;14161;52.270;10.334;2022-10-13T21:52:07;9.10;;;6.00;;
26474;SDS011;14161;52.270;10.334;2022-10-13T21:54:33;10.80;;;6.30;;
26474;SDS011;14161;52.270;10.334;2022-10-13T21:56:58;8.35;;;6.50;;
26474;SDS011;14161;52.270;10.334;2022-10-13T21:59:35;10.68;;;6.90;;
26474;SDS011;14161;52.270;10.334;2022-10-13T22:02:00;11.35;;;7.30;;
26474;SDS011;14161;52.270;10.334;2022-10-13T22:04:26;10.32;;;6.82;;
26474;SDS011;14161;52.270;10.334;2022-10-13T22:06:51;8.57;;;6.80;;
26474;SDS011;14161;52.270;10.334;2022-10-13T22:09:20;12.88;;;7.35;;
26474;SDS011;14161;52.270;10.334;2022-10-13T22:11:50;9.88;;;7.18;;
26474;SDS011;14161;52.270;10.334;2022-10-13T22:14:18;11.40;;;7.50;;
26474;SDS011;14161;52.270;10.334;2022-10-13T22:16:45;10.65;;;7.22;;
26474;SDS011;14161;52.270;10.334;2022-10-13T22:19:12;10.60;;;7.05;;
26474;SDS011;14161;52.270;10.334;2022-10-13T22:21:39;12.60;;;7.95;;
26474;SDS011;14161;52.270;10.334;2022-10-13T22:24:07;10.10;;;7.25;;
26474;SDS011;14161;52.270;10.334;2022-10-13T22:26:35;13.48;;;8.10;;
26474;SDS011;14161;52.270;10.334;2022-10-13T22:29:03;14.15;;;6.97;;
26474;SDS011;14161;52.270;10.334;2022-10-13T22:31:29;10.98;;;7.30;;
26474;SDS011;14161;52.270;10.334;2022-10-13T22:33:56;10.00;;;7.78;;
26474;SDS011;14161;52.270;10.334;2022-10-13T22:36:23;11.00;;;8.10;;
26474;SDS011;14161;52.270;10.334;2022-10-13T22:38:50;11.38;;;7.55;;
26474;SDS011;14161;52.270;10.334;2022-10-13T22:41:17;13.75;;;7.35;;
26474;SDS011;14161;52.270;10.334;2022-10-13T22:43:47;12.15;;;7.90;;
26474;SDS011;14161;52.270;10.334;2022-10-13T22:46:31;10.93;;;7.97;;
26474;SDS011;14161;52.270;10.334;2022-10-13T22:49:09;13.13;;;7.70;;
26474;SDS011;14161;52.270;10.334;2022-10-13T22:51:44;12.82;;;8.98;;
26474;SDS011;14161;52.270;10.334;2022-10-13T22:54:10;11.85;;;8.27;;
26474;SDS011;14161;52.270;10.334;2022-10-13T22:56:39;12.80;;;8.20;;
26474;SDS011;14161;52.270;10.334;2022-10-13T22:59:06;12.45;;;9.07;;
26474;SDS011;14161;52.270;10.334;2022-10-13T23:01:32;12.88;;;9.20;;
26474;SDS011;14161;52.270;10.334;2022-10-13T23:03:58;19.58;;;10.60;;
26474;SDS011;14161;52.270;10.334;2022-10-13T23:06:25;13.07;;;8.45;;
26474;SDS011;14161;52.270;10.334;2022-10-13T23:08:52;12.13;;;8.23;;
26474;SDS011;14161;52.270;10.334;2022-10-13T23:11:17;13.02;;;9.43;;
26474;SDS011;14161;52.270;10.334;2022-10-13T23:13:43;15.60;;;10.45;;
26474;SDS011;14161;52.270;10.334;2022-10-13T23:16:13;13.77;;;9.30;;
26474;SDS011;14161;52.270;10.334;2022-10-13T23:18:41;16.27;;;10.48;;
26474;SDS011;14161;52.270;10.334;2022-10-13T23:23:59;16.80;;;10.48;;
26474;SDS011;14161;52.270;10.334;2022-10-13T23:26:26;18.48;;;11.00;;
26474;SDS011;14161;52.270;10.334;2022-10-13T23:28:52;17.80;;;12.57;;
26474;SDS011;14161;52.270;10.334;2022-10-13T23:31:19;16.67;;;11.23;;
26474;SDS011;14161;52.270;10.334;2022-10-13T23:33:44;18.20;;;11.38;;
26474;SDS011;14161;52.270;10.334;2022-10-13T23:36:12;15.35;;;10.75;;
26474;SDS011;14161;52.270;10.334;2022-10-13T23:38:42;20.35;;;12.93;;
26474;SDS011;14161;52.270;10.334;2022-10-13T23:41:08;14.52;;;11.45;;
26474;SDS011;14161;52.270;10.334;2022-10-13T23:43:36;17.30;;;12.18;;
26474;SDS011;14161;52.270;10.334;2022-10-13T23:46:02;15.13;;;11.23;;
26474;SDS011;14161;52.270;10.334;2022-10-13T23:48:29;16.48;;;12.38;;
26474;SDS011;14161;52.270;10.334;2022-10-13T23:50:54;15.98;;;11.30;;
26474;SDS011;14161;52.270;10.334;2022-10-13T23:53:20;16.50;;;11.57;;
26474;SDS011;14161;52.270;10.334;2022-10-13T23:55:45;16.27;;;11.85;;
26474;SDS011;14161;52.270;10.334;2022-10-13T23:58:24;16.83;;;10.95;;
